sensor_id;sensor_type;location;lat;lon;timestamp;pressure;altitude;pressure_sealevel;temperature;humidity
70521;BME280;58442;52.716;23.560;2023-03-14T00:00:38;99957.19;;;8.69;74.48
70521;BME280;58442;52.716;23.560;2023-03-14T00:02:44;99954.05;;;8.67;74.43
70521;BME280;58442;52.716;23.560;2023-03-14T00:04:45;99950.91;;;8.65;74.43
70521;BME280;58442;52.716;23.560;2023-03-14T00:06:47;99945.83;;;8.63;74.38
70521;BME280;58442;52.716;23.560;2023-03-14T00:08:52;99941.55;;;8.62;74.35
70521;BME280;58442;52.716;23.560;2023-03-14T00:10:55;99929.58;;;8.63;74.28
70521;BME280;58442;52.716;23.560;2023-03-14T00:12:58;99926.87;;;8.63;74.16
70521;BME280;58442;52.716;23.560;2023-03-14T00:15:00;99921.91;;;8.65;74.03
70521;BME280;58442;52.716;23.560;2023-03-14T00:17:08;99909.84;;;8.63;73.99
70521;BME280;58442;52.716;23.560;2023-03-14T00:19:09;99911.76;;;8.62;73.97
70521;BME280;58442;52.716;23.560;2023-03-14T00:21:11;99907.49;;;8.61;73.84
70521;BME280;58442;52.716;23.560;2023-03-14T00:23:13;99915.97;;;8.60;73.84
70521;BME280;58442;52.716;23.560;2023-03-14T00:25:22;99926.02;;;8.59;73.75
70521;BME280;58442;52.716;23.560;2023-03-14T00:27:23;99927.16;;;8.58;73.67
70521;BME280;58442;52.716;23.560;2023-03-14T00:29:25;99923.23;;;8.56;73.61
70521;BME280;58442;52.716;23.560;2023-03-14T00:31:26;99918.95;;;8.55;73.59
70521;BME280;58442;52.716;23.560;2023-03-14T00:33:37;99914.25;;;8.52;73.59
70521;BME280;58442;52.716;23.560;2023-03-14T00:35:38;99918.89;;;8.51;73.60
70521;BME280;58442;52.716;23.560;2023-03-14T00:37:40;99909.95;;;8.50;73.56
70521;BME280;58442;52.716;23.560;2023-03-14T00:39:42;99905.34;;;8.51;73.52
70521;BME280;58442;52.716;23.560;2023-03-14T00:41:52;99905.77;;;8.53;73.42
70521;BME280;58442;52.716;23.560;2023-03-14T00:43:53;99899.99;;;8.55;73.33
70521;BME280;58442;52.716;23.560;2023-03-14T00:45:55;99902.70;;;8.55;73.21
70521;BME280;58442;52.716;23.560;2023-03-14T00:47:57;99895.78;;;8.57;73.13
70521;BME280;58442;52.716;23.560;2023-03-14T00:50:08;99896.56;;;8.58;73.02
70521;BME280;58442;52.716;23.560;2023-03-14T00:52:09;99897.71;;;8.57;72.90
70521;BME280;58442;52.716;23.560;2023-03-14T00:54:11;99901.98;;;8.58;72.81
70521;BME280;58442;52.716;23.560;2023-03-14T00:56:13;99894.66;;;8.58;72.71
70521;BME280;58442;52.716;23.560;2023-03-14T00:58:22;99898.48;;;8.57;72.64
70521;BME280;58442;52.716;23.560;2023-03-14T01:00:23;99889.94;;;8.55;72.59
70521;BME280;58442;52.716;23.560;2023-03-14T01:02:24;99879.11;;;8.55;72.59
70521;BME280;58442;52.716;23.560;2023-03-14T01:04:26;99882.96;;;8.54;72.49
70521;BME280;58442;52.716;23.560;2023-03-14T01:06:37;99889.94;;;8.55;72.41
70521;BME280;58442;52.716;23.560;2023-03-14T01:08:39;99876.77;;;8.54;72.40
70521;BME280;58442;52.716;23.560;2023-03-14T01:10:41;99881.40;;;8.53;72.33
70521;BME280;58442;52.716;23.560;2023-03-14T01:12:42;99870.55;;;8.53;72.24
70521;BME280;58442;52.716;23.560;2023-03-14T01:14:52;99869.00;;;8.52;72.16
70521;BME280;58442;52.716;23.560;2023-03-14T01:16:53;99862.02;;;8.51;72.09
70521;BME280;58442;52.716;23.560;2023-03-14T01:18:55;99857.71;;;8.50;72.01
70521;BME280;58442;52.716;23.560;2023-03-14T01:20:56;99851.19;;;8.51;71.83
70521;BME280;58442;52.716;23.560;2023-03-14T01:23:06;99852.30;;;8.50;71.73
70521;BME280;58442;52.716;23.560;2023-03-14T01:25:14;99856.15;;;8.49;71.70
70521;BME280;58442;52.716;23.560;2023-03-14T01:27:15;99853.38;;;8.45;71.68
70521;BME280;58442;52.716;23.560;2023-03-14T01:29:17;99858.79;;;8.45;71.60
70521;BME280;58442;52.716;23.560;2023-03-14T01:31:22;99854.08;;;8.42;71.58
70521;BME280;58442;52.716;23.560;2023-03-14T01:33:24;99856.36;;;8.40;71.48
70521;BME280;58442;52.716;23.560;2023-03-14T01:35:25;99852.44;;;8.38;71.50
70521;BME280;58442;52.716;23.560;2023-03-14T01:37:26;99853.92;;;8.35;71.48
70521;BME280;58442;52.716;23.560;2023-03-14T01:39:36;99847.70;;;8.35;71.41
70521;BME280;58442;52.716;23.560;2023-03-14T01:41:38;99851.55;;;8.34;71.31
70521;BME280;58442;52.716;23.560;2023-03-14T01:43:39;99853.46;;;8.33;71.25
70521;BME280;58442;52.716;23.560;2023-03-14T01:47:54;99854.52;;;8.29;71.15
70521;BME280;58442;52.716;23.560;2023-03-14T01:50:06;99852.16;;;8.27;71.10
70521;BME280;58442;52.716;23.560;2023-03-14T01:52:13;99859.08;;;8.25;71.03
70521;BME280;58442;52.716;23.560;2023-03-14T01:54:32;99854.81;;;8.23;70.99
70521;BME280;58442;52.716;23.560;2023-03-14T01:56:30;99849.40;;;8.23;70.92
70521;BME280;58442;52.716;23.560;2023-03-14T01:58:37;99851.30;;;8.23;70.85
70521;BME280;58442;52.716;23.560;2023-03-14T02:00:40;99854.36;;;8.21;70.74
70521;BME280;58442;52.716;23.560;2023-03-14T02:02:44;99850.80;;;8.17;70.70
70521;BME280;58442;52.716;23.560;2023-03-14T02:04:46;99849.57;;;8.15;70.73
70521;BME280;58442;52.716;23.560;2023-03-14T02:09:12;99830.83;;;8.06;70.69
70521;BME280;58442;52.716;23.560;2023-03-14T02:11:14;99833.11;;;8.04;70.61
70521;BME280;58442;52.716;23.560;2023-03-14T02:13:17;99829.16;;;8.02;70.64
70521;BME280;58442;52.716;23.560;2023-03-14T02:15:19;99830.67;;;7.99;70.57
70521;BME280;58442;52.716;23.560;2023-03-14T02:17:27;99833.63;;;7.94;70.60
70521;BME280;58442;52.716;23.560;2023-03-14T02:21:54;99838.98;;;7.90;70.53
70521;BME280;58442;52.716;23.560;2023-03-14T02:24:09;99835.03;;;7.88;70.47
70521;BME280;58442;52.716;23.560;2023-03-14T02:26:21;99835.32;;;7.83;70.47
70521;BME280;58442;52.716;23.560;2023-03-14T02:28:24;99830.59;;;7.80;70.52
70521;BME280;58442;52.716;23.560;2023-03-14T02:30:31;99836.26;;;7.75;70.51
70521;BME280;58442;52.716;23.560;2023-03-14T02:32:34;99843.16;;;7.72;70.48
70521;BME280;58442;52.716;23.560;2023-03-14T02:34:37;99837.33;;;7.70;70.42
70521;BME280;58442;52.716;23.560;2023-03-14T02:36:38;99842.28;;;7.68;70.40
70521;BME280;58442;52.716;23.560;2023-03-14T02:41:07;99842.57;;;7.63;70.36
70521;BME280;58442;52.716;23.560;2023-03-14T02:43:08;99837.06;;;7.59;70.29
70521;BME280;58442;52.716;23.560;2023-03-14T02:47:27;99834.18;;;7.52;70.34
70521;BME280;58442;52.716;23.560;2023-03-14T02:49:31;99841.87;;;7.50;70.34
70521;BME280;58442;52.716;23.560;2023-03-14T02:51:45;99837.13;;;7.47;70.30
70521;BME280;58442;52.716;23.560;2023-03-14T02:53:47;99840.12;;;7.42;70.25
70521;BME280;58442;52.716;23.560;2023-03-14T02:55:48;99836.88;;;7.36;70.31
70521;BME280;58442;52.716;23.560;2023-03-14T02:57:50;99835.21;;;7.32;70.41
70521;BME280;58442;52.716;23.560;2023-03-14T02:59:59;99839.75;;;7.28;70.45
70521;BME280;58442;52.716;23.560;2023-03-14T03:02:00;99840.44;;;7.25;70.42
70521;BME280;58442;52.716;23.560;2023-03-14T03:04:02;99835.73;;;7.22;70.40
70521;BME280;58442;52.716;23.560;2023-03-14T03:06:04;99834.50;;;7.19;70.40
70521;BME280;58442;52.716;23.560;2023-03-14T03:08:13;99820.13;;;7.15;70.44
70521;BME280;58442;52.716;23.560;2023-03-14T03:10:14;99826.20;;;7.12;70.47
70521;BME280;58442;52.716;23.560;2023-03-14T03:12:16;99820.02;;;7.11;70.41
70521;BME280;58442;52.716;23.560;2023-03-14T03:14:17;99826.13;;;7.08;70.41
70521;BME280;58442;52.716;23.560;2023-03-14T03:16:28;99827.93;;;7.04;70.45
70521;BME280;58442;52.716;23.560;2023-03-14T03:18:29;99831.34;;;7.01;70.44
70521;BME280;58442;52.716;23.560;2023-03-14T03:20:30;99831.34;;;7.01;70.48
70521;BME280;58442;52.716;23.560;2023-03-14T03:22:32;99829.77;;;7.00;70.41
70521;BME280;58442;52.716;23.560;2023-03-14T03:24:43;99829.30;;;6.98;70.39
70521;BME280;58442;52.716;23.560;2023-03-14T03:26:45;99829.23;;;6.95;70.36
70521;BME280;58442;52.716;23.560;2023-03-14T03:28:46;99831.92;;;6.95;70.34
70521;BME280;58442;52.716;23.560;2023-03-14T03:30:48;99824.18;;;6.93;70.28
70521;BME280;58442;52.716;23.560;2023-03-14T03:32:58;99823.28;;;6.89;70.25
70521;BME280;58442;52.716;23.560;2023-03-14T03:34:59;99830.17;;;6.87;70.27
70521;BME280;58442;52.716;23.560;2023-03-14T03:37:00;99829.35;;;6.86;70.30
70521;BME280;58442;52.716;23.560;2023-03-14T03:39:02;99825.01;;;6.81;70.24
70521;BME280;58442;52.716;23.560;2023-03-14T03:41:13;99817.26;;;6.80;70.29
70521;BME280;58442;52.716;23.560;2023-03-14T03:43:14;99808.38;;;6.79;70.28
70521;BME280;58442;52.716;23.560;2023-03-14T03:45:15;99806.46;;;6.80;70.23
70521;BME280;58442;52.716;23.560;2023-03-14T03:47:17;99806.46;;;6.80;70.20
70521;BME280;58442;52.716;23.560;2023-03-14T03:49:32;99797.57;;;6.79;70.14
70521;BME280;58442;52.716;23.560;2023-03-14T03:51:33;99798.25;;;6.76;70.09
70521;BME280;58442;52.716;23.560;2023-03-14T03:53:35;99792.05;;;6.76;70.12
70521;BME280;58442;52.716;23.560;2023-03-14T03:55:36;99795.46;;;6.73;70.08
70521;BME280;58442;52.716;23.560;2023-03-14T03:57:42;99791.63;;;6.74;70.10
70521;BME280;58442;52.716;23.560;2023-03-14T03:59:44;99794.32;;;6.74;70.06
70521;BME280;58442;52.716;23.560;2023-03-14T04:01:46;99791.95;;;6.72;70.06
70521;BME280;58442;52.716;23.560;2023-03-14T04:03:47;99780.37;;;6.72;70.03
70521;BME280;58442;52.716;23.560;2023-03-14T04:06:03;99779.26;;;6.73;69.94
70521;BME280;58442;52.716;23.560;2023-03-14T04:08:05;99769.91;;;6.70;69.80
70521;BME280;58442;52.716;23.560;2023-03-14T04:10:07;99763.30;;;6.68;69.91
70521;BME280;58442;52.716;23.560;2023-03-14T04:12:08;99760.17;;;6.66;69.90
70521;BME280;58442;52.716;23.560;2023-03-14T04:14:12;99748.48;;;6.62;69.96
70521;BME280;58442;52.716;23.560;2023-03-14T04:16:17;99753.09;;;6.61;69.96
70521;BME280;58442;52.716;23.560;2023-03-14T04:18:19;99740.72;;;6.60;69.97
70521;BME280;58442;52.716;23.560;2023-03-14T04:20:20;99744.56;;;6.59;69.96
70521;BME280;58442;52.716;23.560;2023-03-14T04:22:27;99749.84;;;6.55;69.94
70521;BME280;58442;52.716;23.560;2023-03-14T04:24:29;99746.72;;;6.53;69.90
70521;BME280;58442;52.716;23.560;2023-03-14T04:26:30;99740.53;;;6.53;69.88
70521;BME280;58442;52.716;23.560;2023-03-14T04:28:32;99753.91;;;6.49;69.80
70521;BME280;58442;52.716;23.560;2023-03-14T04:30:42;99752.59;;;6.43;69.89
70521;BME280;58442;52.716;23.560;2023-03-14T04:32:43;99731.23;;;6.38;69.97
70521;BME280;58442;52.716;23.560;2023-03-14T04:34:45;99738.90;;;6.36;70.03
70521;BME280;58442;52.716;23.560;2023-03-14T04:36:46;99740.73;;;6.32;70.04
70521;BME280;58442;52.716;23.560;2023-03-14T04:38:57;99751.06;;;6.30;70.07
70521;BME280;58442;52.716;23.560;2023-03-14T04:40:58;99744.88;;;6.29;70.04
70521;BME280;58442;52.716;23.560;2023-03-14T04:43:01;99753.75;;;6.30;70.04
70521;BME280;58442;52.716;23.560;2023-03-14T04:45:03;99752.20;;;6.29;70.04
70521;BME280;58442;52.716;23.560;2023-03-14T04:47:12;99770.73;;;6.30;70.04
70521;BME280;58442;52.716;23.560;2023-03-14T04:49:13;99763.88;;;6.33;69.97
70521;BME280;58442;52.716;23.560;2023-03-14T04:51:15;99763.88;;;6.33;69.91
70521;BME280;58442;52.716;23.560;2023-03-14T04:53:17;99772.41;;;6.35;69.90
70521;BME280;58442;52.716;23.560;2023-03-14T04:55:27;99770.16;;;6.37;69.84
70521;BME280;58442;52.716;23.560;2023-03-14T04:57:28;99772.18;;;6.40;69.77
70521;BME280;58442;52.716;23.560;2023-03-14T04:59:30;99766.09;;;6.43;69.73
70521;BME280;58442;52.716;23.560;2023-03-14T05:01:31;99772.73;;;6.46;69.71
70521;BME280;58442;52.716;23.560;2023-03-14T05:03:42;99773.05;;;6.44;69.67
70521;BME280;58442;52.716;23.560;2023-03-14T05:05:44;99766.55;;;6.45;69.62
70521;BME280;58442;52.716;23.560;2023-03-14T05:07:45;99774.30;;;6.47;69.59
70521;BME280;58442;52.716;23.560;2023-03-14T05:09:47;99775.08;;;6.47;69.52
70521;BME280;58442;52.716;23.560;2023-03-14T05:11:57;99773.05;;;6.44;69.54
70521;BME280;58442;52.716;23.560;2023-03-14T05:13:58;99777.35;;;6.45;69.54
70521;BME280;58442;52.716;23.560;2023-03-14T05:16:07;99773.52;;;6.46;69.51
70521;BME280;58442;52.716;23.560;2023-03-14T05:18:09;99781.70;;;6.50;69.43
70521;BME280;58442;52.716;23.560;2023-03-14T05:20:12;99779.78;;;6.50;69.39
70521;BME280;58442;52.716;23.560;2023-03-14T05:22:17;99781.70;;;6.50;69.39
70521;BME280;58442;52.716;23.560;2023-03-14T05:24:18;99774.38;;;6.50;69.38
70521;BME280;58442;52.716;23.560;2023-03-14T05:26:19;99768.98;;;6.50;69.39
70521;BME280;58442;52.716;23.560;2023-03-14T05:28:27;99771.36;;;6.52;69.37
70521;BME280;58442;52.716;23.560;2023-03-14T05:30:29;99761.66;;;6.51;69.34
70521;BME280;58442;52.716;23.560;2023-03-14T05:32:32;99763.58;;;6.50;69.31
70521;BME280;58442;52.716;23.560;2023-03-14T05:34:34;99768.98;;;6.50;69.26
70521;BME280;58442;52.716;23.560;2023-03-14T05:36:42;99771.25;;;6.48;69.30
70521;BME280;58442;52.716;23.560;2023-03-14T05:38:43;99755.76;;;6.45;69.34
70521;BME280;58442;52.716;23.560;2023-03-14T05:40:45;99753.38;;;6.44;69.40
70521;BME280;58442;52.716;23.560;2023-03-14T05:42:47;99747.20;;;6.43;69.41
70521;BME280;58442;52.716;23.560;2023-03-14T05:44:56;99748.76;;;6.44;69.38
70521;BME280;58442;52.716;23.560;2023-03-14T05:46:58;99734.48;;;6.44;69.36
70521;BME280;58442;52.716;23.560;2023-03-14T05:48:59;99736.86;;;6.45;69.37
70521;BME280;58442;52.716;23.560;2023-03-14T05:51:01;99727.28;;;6.48;69.39
70521;BME280;58442;52.716;23.560;2023-03-14T05:53:11;99733.89;;;6.50;69.38
70521;BME280;58442;52.716;23.560;2023-03-14T05:55:13;99726.68;;;6.54;69.36
70521;BME280;58442;52.716;23.560;2023-03-14T05:57:14;99728.02;;;6.61;69.35
70521;BME280;58442;52.716;23.560;2023-03-14T05:59:15;99725.85;;;6.66;69.28
70521;BME280;58442;52.716;23.560;2023-03-14T06:01:26;99731.77;;;6.72;69.20
70521;BME280;58442;52.716;23.560;2023-03-14T06:03:28;99729.95;;;6.76;69.13
70521;BME280;58442;52.716;23.560;2023-03-14T06:05:29;99725.88;;;6.82;69.08
70521;BME280;58442;52.716;23.560;2023-03-14T06:07:30;99719.09;;;6.88;69.00
70521;BME280;58442;52.716;23.560;2023-03-14T06:09:41;99720.41;;;6.94;68.89
70521;BME280;58442;52.716;23.560;2023-03-14T06:11:43;99714.72;;;6.99;68.76
70521;BME280;58442;52.716;23.560;2023-03-14T06:13:44;99711.76;;;7.04;68.69
70521;BME280;58442;52.716;23.560;2023-03-14T06:15:46;99717.34;;;7.11;68.63
70521;BME280;58442;52.716;23.560;2023-03-14T06:17:56;99709.76;;;7.17;68.56
70521;BME280;58442;52.716;23.560;2023-03-14T06:19:58;99721.52;;;7.25;68.44
70521;BME280;58442;52.716;23.560;2023-03-14T06:21:59;99723.97;;;7.30;68.34
70521;BME280;58442;52.716;23.560;2023-03-14T06:24:00;99701.64;;;7.33;68.32
70521;BME280;58442;52.716;23.560;2023-03-14T06:26:11;99700.23;;;7.39;68.21
70521;BME280;58442;52.716;23.560;2023-03-14T06:28:13;99699.98;;;7.44;68.07
70521;BME280;58442;52.716;23.560;2023-03-14T06:30:15;99699.72;;;7.49;67.97
70521;BME280;58442;52.716;23.560;2023-03-14T06:32:16;99699.00;;;7.52;67.91
70521;BME280;58442;52.716;23.560;2023-03-14T06:34:26;99696.72;;;7.54;67.88
70521;BME280;58442;52.716;23.560;2023-03-14T06:36:27;99703.01;;;7.58;67.78
70521;BME280;58442;52.716;23.560;2023-03-14T06:38:29;99697.69;;;7.62;67.71
70521;BME280;58442;52.716;23.560;2023-03-14T06:40:30;99707.42;;;7.66;67.62
70521;BME280;58442;52.716;23.560;2023-03-14T06:42:41;99685.09;;;7.70;67.53
70521;BME280;58442;52.716;23.560;2023-03-14T06:44:42;99689.37;;;7.71;67.43
70521;BME280;58442;52.716;23.560;2023-03-14T06:46:44;99690.58;;;7.73;67.41
70521;BME280;58442;52.716;23.560;2023-03-14T06:48:45;99679.06;;;7.76;67.39
70521;BME280;58442;52.716;23.560;2023-03-14T06:50:56;99677.56;;;7.79;67.33
70521;BME280;58442;52.716;23.560;2023-03-14T06:52:57;99683.84;;;7.83;67.23
70521;BME280;58442;52.716;23.560;2023-03-14T06:54:59;99702.05;;;7.86;67.14
70521;BME280;58442;52.716;23.560;2023-03-14T06:57:00;99705.95;;;7.88;67.04
70521;BME280;58442;52.716;23.560;2023-03-14T06:59:11;99701.78;;;7.91;67.05
70521;BME280;58442;52.716;23.560;2023-03-14T07:01:20;99695.66;;;7.94;67.02
70521;BME280;58442;52.716;23.560;2023-03-14T07:03:21;99688.05;;;8.00;66.92
70521;BME280;58442;52.716;23.560;2023-03-14T07:05:23;99683.14;;;8.05;66.82
70521;BME280;58442;52.716;23.560;2023-03-14T07:07:26;99686.35;;;8.11;66.73
70521;BME280;58442;52.716;23.560;2023-03-14T07:09:28;99683.33;;;8.16;66.61
70521;BME280;58442;52.716;23.560;2023-03-14T07:11:29;99671.09;;;8.22;66.53
70521;BME280;58442;52.716;23.560;2023-03-14T07:13:30;99672.73;;;8.27;66.48
70521;BME280;58442;52.716;23.560;2023-03-14T07:15:41;99679.84;;;8.35;66.35
70521;BME280;58442;52.716;23.560;2023-03-14T07:17:42;99676.52;;;8.41;66.20
70521;BME280;58442;52.716;23.560;2023-03-14T07:19:43;99669.66;;;8.47;66.06
70521;BME280;58442;52.716;23.560;2023-03-14T07:21:45;99660.90;;;8.54;65.97
70521;BME280;58442;52.716;23.560;2023-03-14T07:23:55;99659.45;;;8.60;65.86
70521;BME280;58442;52.716;23.560;2023-03-14T07:25:57;99675.84;;;8.67;65.68
70521;BME280;58442;52.716;23.560;2023-03-14T07:27:58;99659.70;;;8.74;65.53
70521;BME280;58442;52.716;23.560;2023-03-14T07:30:00;99657.52;;;8.84;65.36
70521;BME280;58442;52.716;23.560;2023-03-14T07:32:10;99670.05;;;8.92;65.13
70521;BME280;58442;52.716;23.560;2023-03-14T07:34:15;99671.30;;;8.98;65.04
70521;BME280;58442;52.716;23.560;2023-03-14T07:36:17;99672.20;;;9.05;64.92
70521;BME280;58442;52.716;23.560;2023-03-14T07:38:18;99676.24;;;9.15;64.80
70521;BME280;58442;52.716;23.560;2023-03-14T07:40:25;99681.03;;;9.25;64.67
70521;BME280;58442;52.716;23.560;2023-03-14T07:42:27;99676.16;;;9.35;64.51
70521;BME280;58442;52.716;23.560;2023-03-14T07:44:28;99664.27;;;9.43;64.35
70521;BME280;58442;52.716;23.560;2023-03-14T07:46:29;99667.45;;;9.48;64.30
70521;BME280;58442;52.716;23.560;2023-03-14T07:48:40;99651.27;;;9.55;64.17
70521;BME280;58442;52.716;23.560;2023-03-14T07:50:42;99657.16;;;9.61;63.91
70521;BME280;58442;52.716;23.560;2023-03-14T07:52:43;99643.27;;;9.66;63.82
70521;BME280;58442;52.716;23.560;2023-03-14T07:54:45;99643.35;;;9.73;63.77
70521;BME280;58442;52.716;23.560;2023-03-14T07:56:55;99640.33;;;9.78;63.60
70521;BME280;58442;52.716;23.560;2023-03-14T07:58:57;99641.95;;;9.83;63.55
70521;BME280;58442;52.716;23.560;2023-03-14T08:00:58;99626.13;;;9.89;63.42
70521;BME280;58442;52.716;23.560;2023-03-14T08:03:00;99619.63;;;9.97;63.21
70521;BME280;58442;52.716;23.560;2023-03-14T08:05:10;99615.84;;;10.05;63.14
70521;BME280;58442;52.716;23.560;2023-03-14T08:07:11;99601.58;;;10.15;62.91
70521;BME280;58442;52.716;23.560;2023-03-14T08:09:12;99597.46;;;10.25;62.81
70521;BME280;58442;52.716;23.560;2023-03-14T08:11:14;99588.99;;;10.33;62.72
70521;BME280;58442;52.716;23.560;2023-03-14T08:13:25;99587.55;;;10.43;62.57
70521;BME280;58442;52.716;23.560;2023-03-14T08:15:28;99582.97;;;10.51;62.42
70521;BME280;58442;52.716;23.560;2023-03-14T08:17:29;99586.92;;;10.60;62.20
70521;BME280;58442;52.716;23.560;2023-03-14T08:19:31;99579.27;;;10.73;61.97
70521;BME280;58442;52.716;23.560;2023-03-14T08:21:39;99577.82;;;10.90;61.71
70521;BME280;58442;52.716;23.560;2023-03-14T08:23:41;99560.48;;;11.05;61.37
70521;BME280;58442;52.716;23.560;2023-03-14T08:26:15;99553.59;;;11.26;60.94
70521;BME280;58442;52.716;23.560;2023-03-14T08:28:17;99561.45;;;11.45;60.83
70521;BME280;58442;52.716;23.560;2023-03-14T08:30:20;99549.48;;;11.64;60.53
70521;BME280;58442;52.716;23.560;2023-03-14T08:32:30;99542.97;;;11.86;60.16
70521;BME280;58442;52.716;23.560;2023-03-14T08:34:33;99545.72;;;12.00;59.78
70521;BME280;58442;52.716;23.560;2023-03-14T08:36:35;99534.84;;;12.08;59.65
70521;BME280;58442;52.716;23.560;2023-03-14T08:38:36;99536.82;;;12.18;59.39
70521;BME280;58442;52.716;23.560;2023-03-14T08:40:45;99538.38;;;12.22;59.05
70521;BME280;58442;52.716;23.560;2023-03-14T08:42:47;99544.63;;;12.37;58.79
70521;BME280;58442;52.716;23.560;2023-03-14T08:44:48;99553.56;;;12.48;58.56
70521;BME280;58442;52.716;23.560;2023-03-14T08:46:49;99554.35;;;12.59;58.43
70521;BME280;58442;52.716;23.560;2023-03-14T08:49:00;99573.81;;;12.69;58.22
70521;BME280;58442;52.716;23.560;2023-03-14T08:51:06;99587.08;;;12.77;58.03
70521;BME280;58442;52.716;23.560;2023-03-14T08:53:07;99588.24;;;12.87;57.79
70521;BME280;58442;52.716;23.560;2023-03-14T08:55:10;99590.17;;;12.94;57.53
70521;BME280;58442;52.716;23.560;2023-03-14T08:57:15;99582.38;;;12.99;57.30
70521;BME280;58442;52.716;23.560;2023-03-14T08:59:16;99580.82;;;13.05;57.05
70521;BME280;58442;52.716;23.560;2023-03-14T09:01:18;99588.22;;;13.12;56.92
70521;BME280;58442;52.716;23.560;2023-03-14T09:03:20;99583.52;;;13.20;56.75
70521;BME280;58442;52.716;23.560;2023-03-14T09:05:33;99583.13;;;13.28;56.48
70521;BME280;58442;52.716;23.560;2023-03-14T09:07:35;99574.93;;;13.35;56.13
70521;BME280;58442;52.716;23.560;2023-03-14T09:09:36;99574.13;;;13.42;56.13
70521;BME280;58442;52.716;23.560;2023-03-14T09:11:38;99578.01;;;13.48;55.96
70521;BME280;58442;52.716;23.560;2023-03-14T09:13:44;99571.35;;;13.56;55.88
70521;BME280;58442;52.716;23.560;2023-03-14T09:15:50;99558.05;;;13.65;55.62
70521;BME280;58442;52.716;23.560;2023-03-14T09:17:52;99566.20;;;13.76;55.35
70521;BME280;58442;52.716;23.560;2023-03-14T09:19:54;99563.44;;;13.83;55.25
70521;BME280;58442;52.716;23.560;2023-03-14T09:21:59;99553.25;;;13.91;55.20
70521;BME280;58442;52.716;23.560;2023-03-14T09:24:00;99558.27;;;14.00;54.90
70521;BME280;58442;52.716;23.560;2023-03-14T09:26:02;99548.09;;;14.07;54.46
70521;BME280;58442;52.716;23.560;2023-03-14T09:28:04;99544.55;;;14.14;54.50
70521;BME280;58442;52.716;23.560;2023-03-14T09:30:14;99534.34;;;14.21;54.28
70521;BME280;58442;52.716;23.560;2023-03-14T09:32:15;99546.78;;;14.30;53.84
70521;BME280;58442;52.716;23.560;2023-03-14T09:34:16;99534.24;;;14.36;53.64
70521;BME280;58442;52.716;23.560;2023-03-14T09:36:18;99527.95;;;14.42;53.60
70521;BME280;58442;52.716;23.560;2023-03-14T09:38:28;99516.98;;;14.49;53.52
70521;BME280;58442;52.716;23.560;2023-03-14T09:40:36;99523.16;;;14.57;53.20
70521;BME280;58442;52.716;23.560;2023-03-14T09:42:38;99532.49;;;14.63;52.91
70521;BME280;58442;52.716;23.560;2023-03-14T09:44:54;99532.42;;;14.70;52.98
70521;BME280;58442;52.716;23.560;2023-03-14T09:47:00;99539.74;;;14.81;52.90
70521;BME280;58442;52.716;23.560;2023-03-14T09:49:11;99527.95;;;14.87;52.69
70521;BME280;58442;52.716;23.560;2023-03-14T09:51:26;99514.59;;;14.96;52.37
70521;BME280;58442;52.716;23.560;2023-03-14T09:53:37;99528.22;;;15.00;52.20
70521;BME280;58442;52.716;23.560;2023-03-14T09:55:42;99532.90;;;15.03;52.00
70521;BME280;58442;52.716;23.560;2023-03-14T09:57:45;99532.43;;;15.08;51.79
70521;BME280;58442;52.716;23.560;2023-03-14T09:59:50;99533.60;;;15.11;51.67
70521;BME280;58442;52.716;23.560;2023-03-14T10:01:53;99542.60;;;15.08;51.64
70521;BME280;58442;52.716;23.560;2023-03-14T10:03:56;99550.02;;;15.11;51.52
70521;BME280;58442;52.716;23.560;2023-03-14T10:05:58;99538.66;;;15.12;51.37
70521;BME280;58442;52.716;23.560;2023-03-14T10:07:59;99544.91;;;15.13;51.38
70521;BME280;58442;52.716;23.560;2023-03-14T10:10:00;99542.11;;;15.16;51.32
70521;BME280;58442;52.716;23.560;2023-03-14T10:12:02;99537.83;;;15.15;51.07
70521;BME280;58442;52.716;23.560;2023-03-14T10:14:09;99541.34;;;15.16;51.04
70521;BME280;58442;52.716;23.560;2023-03-14T10:16:14;99531.99;;;15.13;51.06
70521;BME280;58442;52.716;23.560;2023-03-14T10:18:15;99530.09;;;15.10;51.03
70521;BME280;58442;52.716;23.560;2023-03-14T10:22:35;99529.62;;;15.15;50.88
70521;BME280;58442;52.716;23.560;2023-03-14T10:24:36;99525.66;;;15.20;50.85
70521;BME280;58442;52.716;23.560;2023-03-14T10:26:38;99516.63;;;15.23;50.69
70521;BME280;58442;52.716;23.560;2023-03-14T10:28:47;99518.56;;;15.26;50.50
70521;BME280;58442;52.716;23.560;2023-03-14T10:30:49;99512.65;;;15.31;50.40
70521;BME280;58442;52.716;23.560;2023-03-14T10:32:50;99506.76;;;15.32;50.38
70521;BME280;58442;52.716;23.560;2023-03-14T10:39:26;99505.04;;;15.46;50.07
70521;BME280;58442;52.716;23.560;2023-03-14T10:41:30;99481.52;;;15.48;49.94
70521;BME280;58442;52.716;23.560;2023-03-14T10:43:34;99473.66;;;15.50;49.96
70521;BME280;58442;52.716;23.560;2023-03-14T10:45:40;99469.76;;;15.51;49.59
70521;BME280;58442;52.716;23.560;2023-03-14T10:47:49;99458.00;;;15.51;49.67
70521;BME280;58442;52.716;23.560;2023-03-14T10:49:51;99466.61;;;15.53;49.82
70521;BME280;58442;52.716;23.560;2023-03-14T10:51:52;99456.35;;;15.57;49.78
70521;BME280;58442;52.716;23.560;2023-03-14T10:54:02;99451.23;;;15.63;49.61
70521;BME280;58442;52.716;23.560;2023-03-14T10:56:04;99449.16;;;15.70;49.41
70521;BME280;58442;52.716;23.560;2023-03-14T11:00:22;99460.75;;;15.81;49.46
70521;BME280;58442;52.716;23.560;2023-03-14T11:05:02;99448.03;;;15.95;49.35
70521;BME280;58442;52.716;23.560;2023-03-14T11:09:42;99443.25;;;15.99;49.13
70521;BME280;58442;52.716;23.560;2023-03-14T11:12:02;99437.73;;;16.02;49.07
70521;BME280;58442;52.716;23.560;2023-03-14T11:27:41;99427.12;;;16.04;48.70
70521;BME280;58442;52.716;23.560;2023-03-14T11:29:55;99428.62;;;16.09;48.60
70521;BME280;58442;52.716;23.560;2023-03-14T11:32:19;99423.06;;;16.12;48.51
70521;BME280;58442;52.716;23.560;2023-03-14T11:34:37;99423.45;;;16.14;48.41